createdAt,value
2023-10-25T00:02:28.604Z,100292.06
2023-10-25T00:05:34.582Z,100293.50
2023-10-25T00:08:38.530Z,100290.53
2023-10-25T00:11:42.183Z,100286.66
2023-10-25T00:14:45.957Z,100291.28
2023-10-25T00:17:51.292Z,100289.63
2023-10-25T00:20:55.839Z,100291.41
2023-10-25T00:23:59.539Z,100300.31
2023-10-25T00:27:03.229Z,100303.00
2023-10-25T00:30:08.588Z,100304.66
2023-10-25T00:33:13.946Z,100302.03
2023-10-25T00:36:17.697Z,100311.59
2023-10-25T00:39:21.405Z,100315.94
2023-10-25T00:42:25.153Z,100317.88
2023-10-25T00:45:31.466Z,100315.06
2023-10-25T00:48:38.741Z,100315.00
2023-10-25T00:51:42.780Z,100314.94
2023-10-25T00:54:46.833Z,100322.09
2023-10-25T00:57:50.698Z,100314.09
2023-10-25T01:00:57.676Z,100313.94
2023-10-25T01:04:02.890Z,100310.53
2023-10-25T01:07:07.428Z,100302.69
2023-10-25T01:10:11.998Z,100299.81
2023-10-25T01:13:15.865Z,100297.78
2023-10-25T01:16:20.988Z,100295.97
2023-10-25T01:19:26.197Z,100296.56
2023-10-25T01:22:31.395Z,100289.88
2023-10-25T01:25:35.296Z,100286.53
2023-10-25T01:28:38.980Z,100286.63
2023-10-25T01:31:43.038Z,100281.34
2023-10-25T01:34:46.834Z,100276.88
2023-10-25T01:37:51.914Z,100273.47
2023-10-25T01:40:55.677Z,100271.38
2023-10-25T01:43:59.450Z,100280.47
2023-10-25T01:47:03.272Z,100275.25
2023-10-25T01:50:09.220Z,100287.53
2023-10-25T01:53:14.308Z,100277.84
2023-10-25T01:56:17.970Z,100273.34
2023-10-25T01:59:22.009Z,100279.22
2023-10-25T02:02:25.904Z,100283.91
2023-10-25T02:05:30.361Z,100282.00
2023-10-25T02:08:35.386Z,100284.31
2023-10-25T02:11:39.171Z,100283.84
2023-10-25T02:14:42.871Z,100279.09
2023-10-25T02:17:46.577Z,100284.69
2023-10-25T02:20:50.306Z,100289.44
2023-10-25T02:23:55.496Z,100288.75
2023-10-25T02:26:59.238Z,100291.38
2023-10-25T02:30:03.789Z,100279.94
2023-10-25T02:33:07.511Z,100284.53
2023-10-25T02:36:11.224Z,100281.16
2023-10-25T02:39:16.332Z,100279.53
2023-10-25T02:42:20.026Z,100274.19
2023-10-25T02:45:23.745Z,100269.25
2023-10-25T02:48:27.439Z,100271.16
2023-10-25T02:51:31.208Z,100272.22
2023-10-25T02:54:36.217Z,100265.75
2023-10-25T02:57:39.918Z,100267.94
2023-10-25T03:00:43.652Z,100270.41
2023-10-25T03:03:47.399Z,100262.44
2023-10-25T03:06:51.236Z,100257.41
2023-10-25T03:09:56.417Z,100257.25
2023-10-25T03:13:01.189Z,100262.03
2023-10-25T03:16:05.801Z,100246.31
2023-10-25T03:19:10.349Z,100251.06
2023-10-25T03:22:14.073Z,100250.59
2023-10-25T03:25:19.464Z,100248.31
2023-10-25T03:28:23.317Z,100253.63
2023-10-25T03:31:27.107Z,100257.03
2023-10-25T03:34:30.920Z,100252.13
2023-10-25T03:37:36.046Z,100251.13
2023-10-25T03:40:41.089Z,100250.97
2023-10-25T03:43:45.084Z,100248.75
2023-10-25T03:46:48.968Z,100244.84
2023-10-25T03:49:54.838Z,100244.84
2023-10-25T03:52:58.560Z,100242.38
2023-10-25T03:56:04.349Z,100236.97
2023-10-25T03:59:08.646Z,100239.13
2023-10-25T04:02:13.264Z,100242.16
2023-10-25T04:05:17.131Z,100234.19
2023-10-25T04:08:20.994Z,100243.38
2023-10-25T04:11:26.086Z,100245.59
2023-10-25T04:14:30.054Z,100248.25
2023-10-25T04:17:33.660Z,100248.16
2023-10-25T04:20:37.408Z,100240.69
2023-10-25T04:23:42.220Z,100237.31
2023-10-25T04:26:47.534Z,100238.16
2023-10-25T04:29:51.148Z,100235.03
2023-10-25T04:32:54.920Z,100237.00
2023-10-25T04:35:58.630Z,100234.47
2023-10-25T04:39:02.589Z,100233.63
2023-10-25T04:42:07.693Z,100231.25
2023-10-25T04:45:19.688Z,100229.38
2023-10-25T04:48:23.480Z,100232.38
2023-10-25T04:51:27.248Z,100233.41
2023-10-25T04:54:30.933Z,100235.19
2023-10-25T04:57:37.458Z,100233.41
2023-10-25T05:00:41.522Z,100230.09
2023-10-25T05:03:45.941Z,100236.53
2023-10-25T05:06:50.871Z,100233.97
2023-10-25T05:09:55.600Z,100230.09
2023-10-25T05:13:01.750Z,100234.50
2023-10-25T05:16:07.328Z,100226.03
2023-10-25T05:19:12.625Z,100231.09
2023-10-25T05:22:18.642Z,100213.94
2023-10-25T05:25:24.103Z,100213.88
2023-10-25T05:28:31.392Z,100214.91
2023-10-25T05:31:40.626Z,100218.25
2023-10-25T05:34:45.288Z,100217.59
2023-10-25T05:37:49.749Z,100219.34
2023-10-25T05:40:56.025Z,100222.19
2023-10-25T05:44:09.412Z,100217.63
2023-10-25T05:47:13.142Z,100221.13
2023-10-25T05:50:18.058Z,100219.53
2023-10-25T05:53:22.732Z,100217.63
2023-10-25T05:56:28.179Z,100213.19
2023-10-25T05:59:34.418Z,100214.19
2023-10-25T06:02:39.959Z,100216.97
2023-10-25T06:05:45.185Z,100220.03
2023-10-25T06:08:49.657Z,100228.00
2023-10-25T06:11:55.557Z,100224.91
2023-10-25T06:15:00.564Z,100223.97
2023-10-25T06:18:08.846Z,100220.13
2023-10-25T06:21:12.480Z,100214.97
2023-10-25T06:24:16.410Z,100212.91
2023-10-25T06:27:20.102Z,100211.31
2023-10-25T06:30:25.313Z,100207.78
2023-10-25T06:33:28.950Z,100207.31
2023-10-25T06:36:35.893Z,100213.25
2023-10-25T06:39:40.742Z,100218.72
2023-10-25T06:42:45.337Z,100216.28
2023-10-25T06:45:51.436Z,100214.81
2023-10-25T06:48:57.644Z,100209.56
2023-10-25T06:52:02.568Z,100215.69
2023-10-25T06:55:07.949Z,100216.41
2023-10-25T06:58:12.575Z,100214.22
2023-10-25T07:01:21.941Z,100209.75
2023-10-25T07:04:29.509Z,100203.75
2023-10-25T07:07:36.118Z,100208.72
2023-10-25T07:10:41.131Z,100204.38
2023-10-25T07:13:44.817Z,100206.91
2023-10-25T07:16:50.049Z,100208.25
2023-10-25T07:19:53.812Z,100212.38
2023-10-25T07:22:57.479Z,100213.22
2023-10-25T07:26:01.177Z,100217.69
2023-10-25T07:29:05.090Z,100212.19
2023-10-25T07:32:10.395Z,100220.50
2023-10-25T07:35:14.256Z,100210.72
2023-10-25T07:38:18.057Z,100217.31
2023-10-25T07:41:21.678Z,100211.09
2023-10-25T07:44:25.355Z,100214.84
2023-10-25T07:47:31.163Z,100210.63
2023-10-25T07:50:35.946Z,100201.09
2023-10-25T07:53:39.637Z,100198.28
2023-10-25T07:59:50.116Z,100199.31
2023-10-25T08:02:55.268Z,100191.69
2023-10-25T08:05:59.142Z,100182.91
2023-10-25T08:09:02.922Z,100187.72
2023-10-25T08:12:07.238Z,100180.66
2023-10-25T08:15:11.505Z,100179.47
2023-10-25T08:18:16.582Z,100181.88
2023-10-25T08:21:20.407Z,100174.28
2023-10-25T08:24:25.001Z,100163.34
2023-10-25T08:27:28.819Z,100152.47
2023-10-25T08:30:34.464Z,100141.28
2023-10-25T08:33:39.628Z,100139.09
2023-10-25T08:36:43.848Z,100140.22
2023-10-25T08:39:51.607Z,100127.66
2023-10-25T08:42:59.847Z,100132.50
2023-10-25T08:46:05.494Z,100131.78
2023-10-25T08:49:10.866Z,100132.41
2023-10-25T08:52:15.873Z,100122.72
2023-10-25T08:55:21.383Z,100127.22
2023-10-25T08:58:28.247Z,100122.25
2023-10-25T09:01:34.323Z,100123.78
2023-10-25T09:04:39.563Z,100126.72
2023-10-25T09:07:43.418Z,100122.25
2023-10-25T09:10:59.309Z,100118.75
2023-10-25T09:14:04.499Z,100119.47
2023-10-25T09:17:10.561Z,100119.28
2023-10-25T09:20:15.810Z,100115.75
2023-10-25T09:23:19.919Z,100104.44
2023-10-25T09:26:23.989Z,100101.75
2023-10-25T09:29:33.063Z,100105.78
2023-10-25T09:32:38.947Z,100104.66
2023-10-25T09:35:44.925Z,100089.47
2023-10-25T09:38:48.978Z,100089.63
2023-10-25T09:41:54.735Z,100079.38
2023-10-25T09:45:05.427Z,100071.50
2023-10-25T09:48:14.617Z,100069.94
2023-10-25T09:51:32.108Z,100069.34
2023-10-25T09:54:37.656Z,100078.34
2023-10-25T09:57:43.984Z,100073.44
2023-10-25T10:00:47.873Z,100060.78
2023-10-25T10:04:09.989Z,100062.47
2023-10-25T10:07:38.669Z,100050.44
2023-10-25T10:10:51.947Z,100055.94
2023-10-25T10:14:33.093Z,100042.03
2023-10-25T10:17:43.813Z,100039.94
2023-10-25T10:21:01.907Z,100028.41
2023-10-25T10:24:28.575Z,100021.34
2023-10-25T10:28:03.958Z,100017.66
2023-10-25T10:31:10.614Z,100005.16
2023-10-25T10:34:14.348Z,100009.44
2023-10-25T10:37:22.288Z,100007.94
2023-10-25T10:40:27.748Z,100007.03
2023-10-25T10:43:33.283Z,99997.66
2023-10-25T10:46:47.058Z,99995.00
2023-10-25T10:50:02.352Z,99984.78
2023-10-25T10:53:05.996Z,99979.06
2023-10-25T10:56:11.411Z,99977.69
2023-10-25T10:59:15.390Z,99967.88
2023-10-25T11:02:20.307Z,99962.25
2023-10-25T11:05:24.693Z,99966.06
2023-10-25T11:08:28.500Z,99962.88
2023-10-25T11:11:33.778Z,99962.34
2023-10-25T11:14:43.186Z,99963.56
2023-10-25T11:17:47.217Z,99971.50
2023-10-25T11:20:51.110Z,99960.72
2023-10-25T11:23:54.888Z,99945.84
2023-10-25T11:26:59.936Z,99940.91
2023-10-25T11:30:04.095Z,99940.50
2023-10-25T11:33:08.768Z,99941.34
2023-10-25T11:36:13.916Z,99933.66
2023-10-25T11:39:17.822Z,99933.22
2023-10-25T11:42:22.973Z,99930.38
2023-10-25T11:45:26.823Z,99917.91
2023-10-25T11:48:30.630Z,99911.91
2023-10-25T11:51:35.702Z,99907.38
2023-10-25T11:54:39.867Z,99902.56
2023-10-25T11:57:44.876Z,99895.63
2023-10-25T12:00:48.714Z,99892.75
2023-10-25T12:03:52.522Z,99892.59
2023-10-25T12:06:57.037Z,99890.91
2023-10-25T12:10:00.824Z,99888.28
2023-10-25T12:13:06.466Z,99882.63
2023-10-25T12:16:11.262Z,99875.19
2023-10-25T12:19:15.040Z,99878.59
2023-10-25T12:22:20.382Z,99874.25
2023-10-25T12:25:24.201Z,99867.22
2023-10-25T12:28:29.738Z,99863.53
2023-10-25T12:31:33.547Z,99860.69
2023-10-25T12:34:37.628Z,99855.72
2023-10-25T12:37:41.993Z,99852.41
2023-10-25T12:40:45.701Z,99851.97
2023-10-25T12:43:50.731Z,99848.25
2023-10-25T12:46:54.500Z,99849.75
2023-10-25T12:49:58.209Z,99837.75
2023-10-25T12:53:02.474Z,99839.81
2023-10-25T12:56:06.684Z,99842.44
2023-10-25T12:59:11.744Z,99831.75
2023-10-25T13:02:15.464Z,99837.09
2023-10-25T13:05:19.206Z,99837.53
2023-10-25T13:08:23.456Z,99846.22
2023-10-25T13:11:27.272Z,99838.41
2023-10-25T13:14:32.578Z,99827.69
2023-10-25T13:17:36.313Z,99823.09
2023-10-25T13:20:40.121Z,99819.81
2023-10-25T13:23:45.115Z,99810.28
2023-10-25T13:26:49.296Z,99805.59
2023-10-25T13:29:57.033Z,99799.78
2023-10-25T13:33:00.935Z,99800.63
2023-10-25T13:36:05.121Z,99791.78
2023-10-25T13:39:08.968Z,99787.75
2023-10-25T13:42:12.705Z,99787.09
2023-10-25T13:45:17.854Z,99784.53
2023-10-25T13:48:21.685Z,99773.06
2023-10-25T13:51:25.536Z,99772.50
2023-10-25T13:54:31.048Z,99765.34
2023-10-25T13:57:35.113Z,99762.53
2023-10-25T14:00:40.507Z,99765.44
2023-10-25T14:03:44.276Z,99766.88
2023-10-25T14:06:47.997Z,99754.25
2023-10-25T14:09:51.592Z,99759.31
2023-10-25T14:12:55.771Z,99760.09
2023-10-25T14:16:00.947Z,99757.84
2023-10-25T14:19:06.622Z,99743.81
2023-10-25T14:22:10.355Z,99752.19
2023-10-25T14:25:14.077Z,99755.38
2023-10-25T14:28:17.866Z,99745.81
2023-10-25T14:31:23.096Z,99745.03
2023-10-25T14:34:26.856Z,99744.84
2023-10-25T14:37:31.137Z,99742.41
2023-10-25T14:40:42.322Z,99730.25
2023-10-25T14:43:46.399Z,99735.41
2023-10-25T14:46:51.550Z,99732.03
2023-10-25T14:49:55.281Z,99733.56
2023-10-25T14:52:58.969Z,99736.72
2023-10-25T14:56:04.123Z,99727.13
2023-10-25T14:59:07.815Z,99733.88
2023-10-25T15:02:13.060Z,99733.91
2023-10-25T15:05:18.272Z,99729.53
2023-10-25T15:08:22.006Z,99725.22
2023-10-25T15:11:26.074Z,99733.47
2023-10-25T15:14:36.305Z,99731.97
2023-10-25T15:17:47.212Z,99723.31
2023-10-25T15:20:51.161Z,99722.00
2023-10-25T15:23:54.878Z,99716.25
2023-10-25T15:26:59.367Z,99718.97
2023-10-25T15:30:04.316Z,99714.25
2023-10-25T15:33:09.717Z,99709.81
2023-10-25T15:36:13.434Z,99707.81
2023-10-25T15:39:17.224Z,99701.22
2023-10-25T15:42:21.081Z,99699.72
2023-10-25T15:45:30.309Z,99703.25
2023-10-25T15:48:43.662Z,99696.50
2023-10-25T15:51:47.442Z,99689.53
2023-10-25T15:54:51.199Z,99686.16
2023-10-25T15:57:54.869Z,99688.28
2023-10-25T16:04:09.317Z,99689.56
2023-10-25T16:07:13.246Z,99687.22
2023-10-25T16:10:17.057Z,99691.69
2023-10-25T16:13:20.717Z,99691.09
2023-10-25T16:16:24.512Z,99684.66
2023-10-25T16:19:31.915Z,99678.72
2023-10-25T16:22:36.436Z,99676.38
2023-10-25T16:25:40.886Z,99672.88
2023-10-25T16:28:47.315Z,99663.34
2023-10-25T16:31:51.497Z,99663.34
2023-10-25T16:34:56.476Z,99659.09
2023-10-25T16:38:00.170Z,99662.91
2023-10-25T16:41:04.477Z,99660.38
2023-10-25T16:44:11.810Z,99664.84
2023-10-25T16:47:15.590Z,99663.00
2023-10-25T16:50:21.213Z,99663.09
2023-10-25T16:53:25.063Z,99657.91
2023-10-25T16:56:28.722Z,99655.34
2023-10-25T16:59:35.177Z,99653.59
2023-10-25T17:02:38.990Z,99655.97
2023-10-25T17:05:44.686Z,99646.38
2023-10-25T17:08:48.646Z,99646.06
2023-10-25T17:11:52.345Z,99648.41
2023-10-25T17:14:56.022Z,99644.69
2023-10-25T17:17:59.881Z,99635.81
2023-10-25T17:21:11.140Z,99629.44
2023-10-25T17:24:15.647Z,99634.34
2023-10-25T17:27:19.311Z,99629.25
2023-10-25T17:30:22.948Z,99626.47
2023-10-25T17:33:27.185Z,99622.31
2023-10-25T17:36:32.292Z,99622.31
2023-10-25T17:39:36.007Z,99626.72
2023-10-25T17:42:39.652Z,99616.88
2023-10-25T17:46:00.364Z,99608.25
2023-10-25T17:49:04.655Z,99616.88
2023-10-25T17:52:10.156Z,99601.91
2023-10-25T17:55:14.645Z,99605.03
2023-10-25T17:58:18.463Z,99607.91
2023-10-25T18:01:22.154Z,99605.53
2023-10-25T18:04:25.894Z,99604.72
2023-10-25T18:07:30.932Z,99603.75
2023-10-25T18:10:34.948Z,99596.06
2023-10-25T18:13:50.415Z,99599.47
2023-10-25T18:17:01.323Z,99590.06
2023-10-25T18:20:06.434Z,99589.47
2023-10-25T18:23:11.725Z,99591.34
2023-10-25T18:26:15.370Z,99580.16
2023-10-25T18:29:19.128Z,99573.91
2023-10-25T18:32:22.924Z,99574.94
2023-10-25T18:35:31.761Z,99571.56
2023-10-25T18:38:36.861Z,99580.25
2023-10-25T18:41:41.428Z,99571.72
2023-10-25T18:44:45.466Z,99569.00
2023-10-25T18:47:49.313Z,99565.63
2023-10-25T18:50:53.083Z,99563.38
2023-10-25T18:53:58.137Z,99560.75
2023-10-25T18:57:01.788Z,99559.88
2023-10-25T19:00:08.044Z,99556.41
2023-10-25T19:03:14.064Z,99562.59
2023-10-25T19:06:28.198Z,99562.59
2023-10-25T19:09:37.466Z,99557.16
2023-10-25T19:12:53.895Z,99561.56
2023-10-25T19:15:57.555Z,99555.53
2023-10-25T19:19:01.648Z,99560.13
2023-10-25T19:22:05.645Z,99566.31
2023-10-25T19:25:11.258Z,99560.31
2023-10-25T19:28:16.684Z,99565.47
2023-10-25T19:31:20.808Z,99562.00
2023-10-25T19:34:25.167Z,99566.41
2023-10-25T19:37:29.218Z,99568.28
2023-10-25T19:40:34.232Z,99561.44
2023-10-25T19:43:39.410Z,99560.56
2023-10-25T19:46:43.380Z,99560.88
2023-10-25T19:49:47.130Z,99562.59
2023-10-25T19:52:50.721Z,99563.59
2023-10-25T19:55:56.215Z,99557.53
2023-10-25T19:58:59.860Z,99556.84
2023-10-25T20:02:03.752Z,99552.50
2023-10-25T20:05:08.719Z,99560.56
2023-10-25T20:08:12.673Z,99560.66
2023-10-25T20:11:19.524Z,99557.34
2023-10-25T20:14:23.608Z,99560.72
2023-10-25T20:17:27.741Z,99564.47
2023-10-25T20:20:31.391Z,99551.44
2023-10-25T20:23:36.590Z,99552.25
2023-10-25T20:26:41.776Z,99556.75
2023-10-25T20:29:48.188Z,99553.19
2023-10-25T20:32:51.978Z,99556.00
2023-10-25T20:36:00.515Z,99550.91
2023-10-25T20:39:04.920Z,99554.63
2023-10-25T20:42:10.158Z,99555.81
2023-10-25T20:45:14.206Z,99544.81
2023-10-25T20:48:18.051Z,99552.59
2023-10-25T20:51:24.300Z,99546.69
2023-10-25T20:54:28.072Z,99547.34
2023-10-25T20:57:34.091Z,99550.25
2023-10-25T21:00:41.530Z,99549.31
2023-10-25T21:03:46.115Z,99548.53
2023-10-25T21:06:49.957Z,99554.72
2023-10-25T21:09:53.716Z,99551.94
2023-10-25T21:12:58.841Z,99541.63
2023-10-25T21:16:05.078Z,99547.88
2023-10-25T21:19:08.914Z,99549.88
2023-10-25T21:22:12.659Z,99546.25
2023-10-25T21:25:16.807Z,99543.72
2023-10-25T21:28:22.521Z,99542.91
2023-10-25T21:31:28.385Z,99543.03
2023-10-25T21:34:32.567Z,99548.53
2023-10-25T21:37:36.563Z,99546.91
2023-10-25T21:40:41.562Z,99548.78
2023-10-25T21:43:46.748Z,99558.84
2023-10-25T21:46:50.433Z,99558.00
2023-10-25T21:49:54.555Z,99558.13
2023-10-25T21:52:58.213Z,99561.78
2023-10-25T21:56:23.534Z,99569.66
2023-10-25T21:59:50.131Z,99562.63
2023-10-25T22:02:51.415Z,99564.41
2023-10-25T22:05:55.164Z,99568.78
2023-10-25T22:08:58.821Z,99574.94
2023-10-25T22:12:02.509Z,99570.66
2023-10-25T22:15:08.893Z,99570.75
2023-10-25T22:18:12.731Z,99575.97
2023-10-25T22:21:16.417Z,99576.03
2023-10-25T22:24:20.120Z,99569.78
2023-10-25T22:27:24.025Z,99566.41
2023-10-25T22:30:29.231Z,99570.56
2023-10-25T22:33:33.629Z,99571.66
2023-10-25T22:36:37.369Z,99563.00
2023-10-25T22:39:41.040Z,99572.75
2023-10-25T22:42:44.656Z,99571.81
2023-10-25T22:45:49.833Z,99581.34
2023-10-25T22:48:53.840Z,99577.81
2023-10-25T22:51:57.558Z,99583.06
2023-10-25T22:55:01.424Z,99580.44
2023-10-25T22:58:05.038Z,99585.84
2023-10-25T23:01:10.207Z,99589.22
2023-10-25T23:04:14.007Z,99589.28
2023-10-25T23:07:17.806Z,99591.25
2023-10-25T23:10:21.663Z,99593.88
2023-10-25T23:13:25.468Z,99596.50
2023-10-25T23:16:30.546Z,99601.72
2023-10-25T23:19:34.301Z,99595.78
2023-10-25T23:22:37.955Z,99607.13
2023-10-25T23:25:41.641Z,99615.13
2023-10-25T23:28:45.288Z,99609.13
2023-10-25T23:31:50.438Z,99628.38
2023-10-25T23:34:54.098Z,99625.75
2023-10-25T23:37:57.719Z,99624.84
2023-10-25T23:41:02.102Z,99624.06
2023-10-25T23:44:06.251Z,99625.00
2023-10-25T23:47:11.255Z,99627.53
2023-10-25T23:50:14.862Z,99631.91
2023-10-25T23:53:18.904Z,99632.06
2023-10-25T23:56:36.270Z,99637.31
2023-10-25T23:59:41.833Z,99628.53
